createdAt,value
2019-03-23T00:01:01.732Z,66.67
2019-03-23T00:03:29.731Z,65.57
2019-03-23T00:05:57.776Z,69.43
2019-03-23T00:08:25.776Z,66.83
2019-03-23T00:10:53.664Z,60.00
2019-03-23T00:13:21.651Z,61.73
2019-03-23T00:15:49.671Z,47.47
2019-03-23T00:18:17.665Z,49.00
2019-03-23T00:20:45.564Z,51.47
2019-03-23T00:23:13.588Z,51.93
2019-03-23T00:25:41.569Z,44.57
2019-03-23T00:28:09.472Z,48.33
2019-03-23T00:30:37.528Z,48.33
2019-03-23T00:33:05.472Z,49.17
2019-03-23T00:35:33.530Z,52.93
2019-03-23T00:38:01.571Z,48.33
2019-03-23T00:40:29.572Z,51.03
2019-03-23T00:42:57.954Z,52.30
2019-03-23T00:45:25.967Z,54.20
2019-03-23T00:47:54.283Z,57.07
2019-03-23T00:50:22.256Z,47.50
2019-03-23T00:52:50.150Z,50.70
2019-03-23T00:55:18.117Z,51.23
2019-03-23T00:57:46.011Z,49.37
2019-03-23T01:00:14.448Z,47.80
2019-03-23T01:02:42.503Z,49.60
2019-03-23T01:05:10.845Z,47.00
2019-03-23T01:07:38.864Z,48.03
2019-03-23T01:10:07.684Z,49.90
2019-03-23T01:12:36.067Z,46.70
2019-03-23T01:15:08.284Z,48.97
2019-03-23T01:17:36.300Z,59.03
2019-03-23T01:20:05.694Z,54.10
2019-03-23T01:22:36.258Z,57.37
2019-03-23T01:25:05.310Z,54.63
2019-03-23T01:27:33.273Z,53.10
2019-03-23T01:30:01.497Z,52.37
2019-03-23T01:32:29.513Z,54.57
2019-03-23T01:34:57.504Z,61.13
2019-03-23T01:37:25.404Z,59.57
2019-03-23T01:39:53.402Z,62.33
2019-03-23T01:42:21.436Z,61.63
2019-03-23T01:44:49.525Z,63.87
2019-03-23T01:47:17.523Z,61.70
2019-03-23T01:49:45.423Z,63.93
2019-03-23T01:52:13.415Z,64.10
2019-03-23T01:54:41.706Z,76.83
2019-03-23T01:57:09.688Z,73.80
2019-03-23T01:59:37.716Z,69.53
2019-03-23T02:02:05.597Z,67.90
2019-03-23T02:04:33.521Z,71.37
2019-03-23T02:07:01.450Z,69.80
2019-03-23T02:09:29.447Z,70.67
2019-03-23T02:11:57.387Z,79.93
2019-03-23T02:14:25.388Z,71.20
2019-03-23T02:16:53.388Z,77.83
2019-03-23T02:19:21.370Z,69.73
2019-03-23T02:21:49.308Z,88.03
2019-03-23T02:24:17.313Z,71.87
2019-03-23T02:26:45.224Z,79.67
2019-03-23T02:29:13.222Z,79.07
2019-03-23T02:31:41.132Z,88.53
2019-03-23T02:34:09.025Z,79.97
2019-03-23T02:36:37.072Z,78.33
2019-03-23T02:39:06.117Z,85.17
2019-03-23T02:41:34.011Z,77.67
2019-03-23T02:44:01.917Z,82.40
2019-03-23T02:46:29.970Z,82.80
2019-03-23T02:48:57.959Z,86.23
2019-03-23T02:51:25.962Z,78.87
2019-03-23T02:53:53.961Z,90.17
2019-03-23T02:56:21.827Z,89.07
2019-03-23T02:58:50.548Z,90.43
2019-03-23T03:01:18.548Z,83.10
2019-03-23T03:03:46.543Z,82.13
2019-03-23T03:06:14.527Z,91.70
2019-03-23T03:08:42.525Z,80.90
2019-03-23T03:11:10.407Z,79.97
2019-03-23T03:13:38.426Z,91.83
2019-03-23T03:16:06.333Z,83.43
2019-03-23T03:18:34.343Z,85.37
2019-03-23T03:21:02.270Z,93.97
2019-03-23T03:23:30.268Z,80.57
2019-03-23T03:25:58.252Z,80.73
2019-03-23T03:28:26.190Z,81.13
2019-03-23T03:30:54.269Z,84.93
2019-03-23T03:33:22.205Z,71.43
2019-03-23T03:35:50.208Z,86.97
2019-03-23T03:38:18.830Z,80.40
2019-03-23T03:40:46.796Z,85.07
2019-03-23T03:43:14.785Z,83.70
2019-03-23T03:45:45.310Z,77.93
2019-03-23T03:48:13.310Z,68.90
2019-03-23T03:50:41.354Z,73.53
2019-03-23T03:53:09.264Z,71.30
2019-03-23T03:55:37.230Z,66.43
2019-03-23T03:58:05.294Z,69.00
2019-03-23T04:00:33.339Z,63.87
2019-03-23T04:03:01.314Z,61.77
2019-03-23T04:05:29.340Z,73.73
2019-03-23T04:08:10.584Z,75.73
2019-03-23T04:10:27.102Z,68.03
2019-03-23T04:12:55.089Z,72.20
2019-03-23T04:15:23.089Z,65.63
2019-03-23T04:17:50.997Z,61.57
2019-03-23T04:20:19.013Z,56.30
2019-03-23T04:22:46.963Z,56.20
2019-03-23T04:25:14.907Z,55.03
2019-03-23T04:27:42.847Z,54.50
2019-03-23T04:30:10.965Z,59.33
2019-03-23T04:32:39.045Z,53.33
2019-03-23T04:35:07.467Z,57.03
2019-03-23T04:37:35.437Z,55.27
2019-03-23T04:40:04.693Z,51.80
2019-03-23T04:42:32.693Z,49.97
2019-03-23T04:45:00.655Z,57.63
2019-03-23T04:47:28.557Z,55.37
2019-03-23T04:49:56.633Z,55.30
2019-03-23T04:52:24.540Z,49.33
2019-03-23T04:54:52.590Z,53.83
2019-03-23T04:57:20.643Z,47.73
2019-03-23T04:59:48.653Z,45.07
2019-03-23T05:02:16.646Z,47.37
2019-03-23T05:04:44.721Z,54.57
2019-03-23T05:07:12.762Z,59.50
2019-03-23T05:09:40.799Z,51.50
2019-03-23T05:12:08.770Z,43.60
2019-03-23T05:14:36.763Z,49.17
2019-03-23T05:17:04.753Z,42.57
2019-03-23T05:19:32.652Z,46.83
2019-03-23T05:22:00.547Z,48.80
2019-03-23T05:24:28.422Z,49.33
2019-03-23T05:26:56.358Z,46.93
2019-03-23T05:29:24.275Z,48.03
2019-03-23T05:31:52.274Z,48.73
2019-03-23T05:34:20.244Z,43.13
2019-03-23T05:36:48.291Z,46.30
2019-03-23T05:39:16.282Z,48.50
2019-03-23T05:41:44.202Z,47.23
2019-03-23T05:44:12.196Z,49.10
2019-03-23T05:46:40.277Z,49.00
2019-03-23T05:49:08.195Z,40.83
2019-03-23T05:51:36.222Z,44.47
2019-03-23T05:54:04.197Z,39.07
2019-03-23T05:56:32.191Z,43.77
2019-03-23T05:59:00.185Z,45.03
2019-03-23T06:01:28.102Z,44.43
2019-03-23T06:03:55.998Z,41.70
2019-03-23T06:06:23.903Z,41.27
2019-03-23T06:08:55.339Z,41.13
2019-03-23T06:11:23.051Z,45.47
2019-03-23T06:13:51.244Z,49.07
2019-03-23T06:16:20.148Z,47.53
2019-03-23T06:18:48.208Z,56.67
2019-03-23T06:21:16.201Z,44.73
2019-03-23T06:23:44.229Z,45.53
2019-03-23T06:26:12.373Z,49.23
2019-03-23T06:28:40.869Z,53.60
2019-03-23T06:31:08.905Z,45.30
2019-03-23T06:33:36.951Z,45.03
2019-03-23T06:36:05.007Z,43.33
2019-03-23T06:38:32.992Z,48.87
2019-03-23T06:41:01.020Z,46.63
2019-03-23T06:43:29.343Z,50.93
2019-03-23T06:45:57.474Z,48.53
2019-03-23T06:48:25.409Z,40.63
2019-03-23T06:50:53.415Z,41.30
2019-03-23T06:53:22.250Z,40.33
2019-03-23T06:55:50.360Z,44.33
2019-03-23T06:58:18.369Z,54.37
2019-03-23T07:00:46.354Z,43.60
2019-03-23T07:03:14.427Z,39.60
2019-03-23T07:05:42.445Z,47.00
2019-03-23T07:08:10.368Z,41.53
2019-03-23T07:10:39.225Z,43.27
2019-03-23T07:13:07.172Z,39.27
2019-03-23T07:15:35.217Z,43.20
2019-03-23T07:18:22.633Z,43.93
2019-03-23T07:20:51.769Z,43.33
2019-03-23T07:23:19.696Z,45.63
2019-03-23T07:25:47.773Z,39.40
2019-03-23T07:28:15.804Z,45.43
2019-03-23T07:30:44.868Z,44.13
2019-03-23T07:33:12.889Z,37.73
2019-03-23T07:35:40.850Z,44.57
2019-03-23T07:38:08.814Z,35.67
2019-03-23T07:40:36.714Z,41.77
2019-03-23T07:43:05.093Z,38.47
2019-03-23T07:45:33.025Z,44.20
2019-03-23T07:48:01.069Z,36.77
2019-03-23T07:50:29.068Z,41.97
2019-03-23T07:52:57.055Z,46.23
2019-03-23T07:55:25.093Z,37.90
2019-03-23T07:57:53.456Z,34.70
2019-03-23T08:00:21.878Z,43.23
2019-03-23T08:02:49.927Z,38.37
2019-03-23T08:05:17.995Z,41.47
2019-03-23T08:07:45.890Z,46.67
2019-03-23T08:10:30.308Z,40.73
2019-03-23T08:12:58.276Z,36.83
2019-03-23T08:15:26.352Z,38.20
2019-03-23T08:17:54.862Z,46.63
2019-03-23T08:20:22.866Z,38.87
2019-03-23T08:22:50.932Z,39.47
2019-03-23T08:25:19.058Z,42.13
2019-03-23T08:27:49.273Z,38.80
2019-03-23T08:30:17.262Z,41.93
2019-03-23T08:32:45.312Z,48.40
2019-03-23T08:35:13.376Z,42.63
2019-03-23T08:37:41.251Z,40.00
2019-03-23T08:40:09.278Z,39.73
2019-03-23T08:42:37.561Z,38.10
2019-03-23T08:45:05.838Z,37.63
2019-03-23T08:47:33.741Z,33.47
2019-03-23T08:50:01.749Z,42.60
2019-03-23T08:52:29.770Z,38.80
2019-03-23T08:54:57.698Z,36.30
2019-03-23T08:57:25.680Z,36.00
2019-03-23T08:59:53.676Z,40.17
2019-03-23T09:02:22.130Z,47.07
2019-03-23T09:04:50.048Z,41.17
2019-03-23T09:07:18.404Z,37.50
2019-03-23T09:09:46.580Z,36.60
2019-03-23T09:12:14.630Z,44.57
2019-03-23T09:14:42.525Z,41.33
2019-03-23T09:17:10.556Z,40.00
2019-03-23T09:19:38.538Z,44.77
2019-03-23T09:22:06.932Z,36.53
2019-03-23T09:24:34.934Z,37.90
2019-03-23T09:27:13.997Z,34.97
2019-03-23T09:29:43.261Z,36.43
2019-03-23T09:32:11.473Z,43.37
2019-03-23T09:34:39.485Z,42.47
2019-03-23T09:37:07.526Z,38.93
2019-03-23T09:39:35.580Z,37.50
2019-03-23T09:42:03.522Z,34.07
2019-03-23T09:44:31.464Z,40.50
2019-03-23T09:46:59.384Z,39.17
2019-03-23T09:49:27.493Z,38.80
2019-03-23T09:51:55.460Z,37.13
2019-03-23T09:54:23.521Z,35.23
2019-03-23T09:56:51.523Z,41.33
2019-03-23T09:59:19.466Z,37.73
2019-03-23T10:01:47.476Z,44.77
2019-03-23T10:04:15.502Z,36.33
2019-03-23T10:06:43.547Z,45.70
2019-03-23T10:09:11.445Z,35.17
2019-03-23T10:11:40.317Z,36.90
2019-03-23T10:14:09.293Z,38.17
2019-03-23T10:16:38.434Z,41.90
2019-03-23T10:19:06.487Z,36.17
2019-03-23T10:21:34.561Z,34.10
2019-03-23T10:24:02.725Z,38.10
2019-03-23T10:26:32.429Z,40.47
2019-03-23T10:29:00.463Z,38.77
2019-03-23T10:31:28.409Z,38.47
2019-03-23T10:33:56.411Z,36.80
2019-03-23T10:36:24.495Z,37.27
2019-03-23T10:38:52.529Z,47.43
2019-03-23T10:41:39.739Z,45.90
2019-03-23T10:44:07.748Z,32.30
2019-03-23T10:46:36.813Z,29.83
2019-03-23T10:49:04.950Z,35.00
2019-03-23T10:51:32.959Z,44.43
2019-03-23T10:54:04.122Z,37.93
2019-03-23T10:56:32.444Z,36.83
2019-03-23T10:59:14.151Z,36.30
2019-03-23T11:01:42.195Z,37.10
2019-03-23T11:04:10.351Z,36.87
2019-03-23T11:06:38.281Z,35.53
2019-03-23T11:09:07.113Z,32.43
2019-03-23T11:11:35.178Z,37.00
2019-03-23T11:14:03.096Z,31.13
2019-03-23T11:16:31.135Z,33.37
2019-03-23T11:18:59.294Z,38.47
2019-03-23T11:21:27.325Z,36.73
2019-03-23T11:23:55.372Z,36.30
2019-03-23T11:26:23.383Z,42.57
2019-03-23T11:28:51.417Z,34.70
2019-03-23T11:31:19.647Z,35.60
2019-03-23T11:33:47.624Z,33.97
2019-03-23T11:36:15.716Z,37.63
2019-03-23T11:38:43.803Z,31.80
2019-03-23T11:41:11.794Z,33.57
2019-03-23T11:43:39.814Z,42.33
2019-03-23T11:46:07.806Z,38.73
2019-03-23T11:48:35.854Z,36.13
2019-03-23T11:51:03.914Z,73.57
2019-03-23T11:53:32.009Z,34.43
2019-03-23T11:55:59.972Z,38.50
2019-03-23T11:58:28.532Z,44.60
2019-03-23T12:00:56.550Z,40.67
2019-03-23T12:03:26.366Z,38.30
2019-03-23T12:06:00.844Z,36.77
2019-03-23T12:08:30.732Z,38.73
2019-03-23T12:11:03.169Z,38.60
2019-03-23T12:13:28.847Z,32.80
2019-03-23T12:15:56.852Z,39.53
2019-03-23T12:18:24.918Z,34.10
2019-03-23T12:20:52.971Z,35.97
2019-03-23T12:23:20.976Z,36.33
2019-03-23T12:25:49.067Z,41.93
2019-03-23T12:28:17.090Z,35.00
2019-03-23T12:30:45.148Z,35.27
2019-03-23T12:33:13.165Z,34.37
2019-03-23T12:35:41.416Z,45.30
2019-03-23T12:38:09.472Z,37.10
2019-03-23T12:40:40.234Z,34.53
2019-03-23T12:43:08.663Z,34.93
2019-03-23T12:45:38.969Z,30.43
2019-03-23T12:48:10.645Z,42.37
2019-03-23T12:50:39.763Z,30.87
2019-03-23T12:53:07.854Z,41.00
2019-03-23T12:55:35.956Z,35.13
2019-03-23T12:58:08.524Z,34.20
2019-03-23T13:00:38.901Z,38.90
2019-03-23T13:03:07.630Z,31.53
2019-03-23T13:05:35.646Z,34.73
2019-03-23T13:08:03.663Z,35.00
2019-03-23T13:10:31.843Z,36.73
2019-03-23T13:13:01.032Z,34.47
2019-03-23T13:15:29.072Z,34.20
2019-03-23T13:17:57.067Z,31.40
2019-03-23T13:20:25.129Z,32.17
2019-03-23T13:22:53.180Z,36.00
2019-03-23T13:25:29.552Z,38.60
2019-03-23T13:27:58.426Z,33.20
2019-03-23T13:30:26.504Z,48.17
2019-03-23T13:32:54.440Z,38.33
2019-03-23T13:35:22.446Z,29.97
2019-03-23T13:37:50.919Z,35.03
2019-03-23T13:40:18.909Z,32.83
2019-03-23T13:42:46.837Z,32.07
2019-03-23T13:45:15.034Z,33.40
2019-03-23T13:47:46.112Z,35.27
2019-03-23T13:50:25.852Z,40.47
2019-03-23T13:52:53.982Z,37.10
2019-03-23T13:55:26.319Z,42.90
2019-03-23T13:58:08.548Z,37.53
2019-03-23T14:00:37.976Z,38.23
2019-03-23T14:03:08.682Z,41.77
2019-03-23T14:05:36.722Z,40.07
2019-03-23T14:08:04.945Z,39.67
2019-03-23T14:10:34.059Z,39.50
2019-03-23T14:13:02.310Z,36.83
2019-03-23T14:15:30.305Z,36.53
2019-03-23T14:17:58.450Z,43.70
2019-03-23T14:20:28.870Z,42.23
2019-03-23T14:23:02.590Z,43.13
2019-03-23T14:25:27.070Z,41.63
2019-03-23T14:27:58.293Z,48.00
2019-03-23T14:30:26.436Z,36.43
2019-03-23T14:32:56.693Z,44.70
2019-03-23T14:35:27.166Z,42.57
2019-03-23T14:37:56.021Z,41.57
2019-03-23T14:40:28.843Z,35.23
2019-03-23T14:42:56.920Z,42.40
2019-03-23T14:45:24.949Z,37.50
2019-03-23T14:47:53.821Z,32.20
2019-03-23T14:50:21.896Z,30.97
2019-03-23T14:52:49.920Z,32.60
2019-03-23T14:55:17.946Z,30.33
2019-03-23T14:57:45.897Z,29.97
2019-03-23T15:00:19.169Z,30.63
2019-03-23T15:02:47.257Z,29.33
2019-03-23T15:05:15.305Z,33.23
2019-03-23T15:07:43.315Z,30.10
2019-03-23T15:10:11.491Z,28.47
2019-03-23T15:12:39.533Z,24.67
2019-03-23T15:15:08.595Z,29.00
2019-03-23T15:17:36.577Z,24.57
2019-03-23T15:20:05.031Z,26.77
2019-03-23T15:22:32.948Z,20.60
2019-03-23T15:25:00.861Z,24.67
2019-03-23T15:27:29.010Z,19.47
2019-03-23T15:29:58.125Z,33.60
2019-03-23T15:32:26.079Z,45.87
2019-03-23T15:34:54.120Z,15.87
2019-03-23T15:37:22.129Z,18.07
2019-03-23T15:39:50.190Z,13.73
2019-03-23T15:42:24.722Z,15.30
2019-03-23T15:44:49.149Z,12.97
2019-03-23T15:47:17.174Z,15.33
2019-03-23T15:49:45.204Z,14.70
2019-03-23T15:52:13.280Z,13.87
2019-03-23T15:54:41.477Z,11.50
2019-03-23T15:57:09.775Z,16.00
2019-03-23T15:59:37.862Z,17.60
2019-03-23T16:02:05.941Z,16.77
2019-03-23T16:04:35.754Z,11.23
2019-03-23T16:07:06.233Z,11.23
2019-03-23T16:09:34.258Z,10.30
2019-03-23T16:12:04.865Z,10.20
2019-03-23T16:14:32.818Z,8.77
2019-03-23T16:17:00.863Z,11.60
2019-03-23T16:19:30.896Z,9.47
2019-03-23T16:21:59.048Z,11.40
2019-03-23T16:24:27.031Z,13.67
2019-03-23T16:26:55.164Z,12.87
2019-03-23T16:29:23.296Z,8.37
2019-03-23T16:31:52.736Z,12.33
2019-03-23T16:34:20.804Z,10.93
2019-03-23T16:36:50.857Z,14.97
2019-03-23T16:39:18.936Z,5.10
2019-03-23T16:41:46.992Z,9.10
2019-03-23T16:44:15.087Z,9.57
2019-03-23T16:46:43.053Z,4.03
2019-03-23T16:49:11.133Z,7.63
2019-03-23T16:51:39.149Z,15.13
2019-03-23T16:54:07.084Z,12.03
2019-03-23T16:56:36.389Z,9.27
2019-03-23T16:59:06.573Z,5.10
2019-03-23T17:01:34.617Z,8.27
2019-03-23T17:04:02.595Z,8.67
2019-03-23T17:06:30.564Z,8.83
2019-03-23T17:08:58.676Z,12.07
2019-03-23T17:11:26.805Z,6.13
2019-03-23T17:13:54.810Z,7.10
2019-03-23T17:16:22.922Z,6.23
2019-03-23T17:18:51.021Z,5.80
2019-03-23T17:21:18.991Z,5.97
2019-03-23T17:23:47.096Z,10.63
2019-03-23T17:26:15.052Z,8.70
2019-03-23T17:28:43.109Z,7.17
2019-03-23T17:31:10.990Z,5.90
2019-03-23T17:33:39.082Z,13.13
2019-03-23T17:36:07.094Z,11.90
2019-03-23T17:38:35.071Z,10.70
2019-03-23T17:41:05.503Z,14.90
2019-03-23T17:43:33.803Z,11.27
2019-03-23T17:46:01.813Z,9.20
2019-03-23T17:48:29.814Z,9.87
2019-03-23T17:50:57.738Z,9.87
2019-03-23T17:53:25.615Z,16.83
2019-03-23T17:55:53.673Z,10.83
2019-03-23T17:58:21.670Z,12.07
2019-03-23T18:00:49.664Z,10.73
2019-03-23T18:03:17.648Z,7.07
2019-03-23T18:05:46.091Z,5.60
2019-03-23T18:08:14.087Z,10.03
2019-03-23T18:10:43.373Z,12.40
2019-03-23T18:13:16.542Z,11.83
2019-03-23T18:15:41.145Z,8.83
2019-03-23T18:18:09.196Z,8.77
2019-03-23T18:20:37.189Z,8.60
2019-03-23T18:23:29.535Z,10.67
2019-03-23T18:25:59.566Z,9.00
2019-03-23T18:28:27.529Z,8.87
2019-03-23T18:30:55.539Z,6.93
2019-03-23T18:33:23.566Z,9.47
2019-03-23T18:35:51.542Z,10.17
2019-03-23T18:41:15.877Z,10.63
2019-03-23T18:44:03.693Z,11.37
2019-03-23T18:49:15.286Z,14.30
2019-03-23T18:51:43.459Z,24.67
2019-03-23T18:54:11.545Z,17.43
2019-03-23T18:56:39.614Z,22.50
2019-03-23T18:59:07.631Z,15.63
2019-03-23T19:01:35.611Z,22.07
2019-03-23T19:04:03.947Z,24.63
2019-03-23T19:09:07.737Z,6.83
2019-03-23T19:11:36.043Z,11.37
2019-03-23T19:14:04.949Z,7.23
2019-03-23T19:16:33.039Z,13.93
2019-03-23T19:19:00.934Z,11.20
2019-03-23T19:21:28.955Z,7.00
2019-03-23T19:23:58.022Z,14.83
2019-03-23T19:26:28.103Z,9.83
2019-03-23T19:28:56.058Z,11.37
2019-03-23T19:31:24.083Z,9.43
2019-03-23T19:33:52.084Z,10.27
2019-03-23T19:36:20.064Z,13.13
2019-03-23T19:38:48.124Z,14.97
2019-03-23T19:41:16.210Z,14.17
2019-03-23T19:43:48.922Z,7.13
2019-03-23T19:46:13.936Z,8.93
2019-03-23T19:48:41.847Z,8.80
2019-03-23T19:51:09.776Z,11.00
2019-03-23T19:53:37.746Z,11.17
2019-03-23T19:56:05.754Z,11.63
2019-03-23T19:58:33.655Z,10.37
2019-03-23T20:01:01.686Z,10.13
2019-03-23T20:06:05.006Z,7.20
2019-03-23T20:08:33.147Z,8.83
2019-03-23T20:11:01.164Z,8.67
2019-03-23T20:13:29.271Z,10.90
2019-03-23T20:15:57.286Z,8.07
2019-03-23T20:18:25.386Z,9.90
2019-03-23T20:20:54.326Z,12.53
2019-03-23T20:23:23.259Z,13.27
2019-03-23T20:25:51.266Z,9.10
2019-03-23T20:28:19.307Z,7.83
2019-03-23T20:30:47.240Z,11.27
2019-03-23T20:33:19.694Z,11.47
2019-03-23T20:35:45.800Z,5.63
2019-03-23T20:38:13.803Z,10.67
2019-03-23T20:40:42.757Z,9.43
2019-03-23T20:43:10.658Z,11.73
2019-03-23T20:45:38.662Z,12.93
2019-03-23T20:48:07.452Z,12.73
2019-03-23T20:50:35.688Z,11.00
2019-03-23T20:53:03.706Z,6.60
2019-03-23T20:55:31.799Z,9.87
2019-03-23T20:57:59.802Z,12.60
2019-03-23T21:00:27.792Z,5.77
2019-03-23T21:02:55.806Z,6.87
2019-03-23T21:05:33.083Z,6.67
2019-03-23T21:07:53.744Z,12.03
2019-03-23T21:10:21.678Z,14.87
2019-03-23T21:12:49.800Z,12.07
2019-03-23T21:15:17.774Z,10.80
2019-03-23T21:17:51.137Z,7.37
2019-03-23T21:20:15.639Z,17.43
2019-03-23T21:22:43.668Z,10.80
2019-03-23T21:25:11.848Z,12.10
2019-03-23T21:27:39.886Z,4.90
2019-03-23T21:30:10.525Z,9.00
2019-03-23T21:32:38.522Z,12.67
2019-03-23T21:35:06.470Z,7.97
2019-03-23T21:37:34.443Z,8.30
2019-03-23T21:40:02.505Z,11.50
2019-03-23T21:42:30.407Z,14.50
2019-03-23T21:44:58.278Z,7.47
2019-03-23T21:47:26.257Z,6.47
2019-03-23T21:49:54.279Z,11.03
2019-03-23T21:52:22.263Z,7.50
2019-03-23T21:54:50.264Z,13.53
2019-03-23T21:57:18.350Z,8.33
2019-03-23T21:59:46.368Z,7.57
2019-03-23T22:02:14.362Z,10.30
2019-03-23T22:04:42.413Z,17.80
2019-03-23T22:07:10.417Z,8.60
2019-03-23T22:09:38.395Z,7.93
2019-03-23T22:12:06.676Z,10.37
2019-03-23T22:14:41.497Z,18.97
2019-03-23T22:17:05.880Z,17.33
2019-03-23T22:19:35.885Z,13.83
2019-03-23T22:22:03.880Z,8.83
2019-03-23T22:24:31.856Z,19.70
2019-03-23T22:26:59.866Z,7.60
2019-03-23T22:29:27.854Z,15.50
2019-03-23T22:31:55.743Z,17.23
2019-03-23T22:34:23.640Z,12.83
2019-03-23T22:36:51.540Z,17.67
2019-03-23T22:39:19.709Z,21.27
2019-03-23T22:41:47.619Z,16.40
2019-03-23T22:44:15.577Z,14.23
2019-03-23T22:46:43.548Z,20.20
2019-03-23T22:49:11.582Z,14.67
2019-03-23T22:51:41.419Z,12.50
2019-03-23T22:54:09.375Z,12.37
2019-03-23T22:56:37.369Z,13.50
2019-03-23T22:59:05.431Z,13.10
2019-03-23T23:01:33.463Z,13.73
2019-03-23T23:04:01.465Z,12.00
2019-03-23T23:06:29.351Z,9.77
2019-03-23T23:08:57.253Z,13.03
2019-03-23T23:11:25.298Z,12.87
2019-03-23T23:13:53.475Z,9.40
2019-03-23T23:16:21.361Z,6.97
2019-03-23T23:18:52.231Z,16.93
2019-03-23T23:21:20.102Z,9.57
2019-03-23T23:23:48.105Z,12.60
2019-03-23T23:26:16.077Z,13.83
2019-03-23T23:28:44.046Z,12.60
2019-03-23T23:31:11.941Z,7.73
2019-03-23T23:33:39.957Z,15.07
2019-03-23T23:36:07.941Z,10.53
2019-03-23T23:38:35.853Z,4.93
2019-03-23T23:41:03.888Z,8.87
2019-03-23T23:43:31.810Z,9.23
2019-03-23T23:45:59.789Z,10.93
2019-03-23T23:48:27.819Z,10.77
2019-03-23T23:50:55.813Z,11.23
2019-03-23T23:53:23.835Z,13.27
2019-03-23T23:55:51.873Z,5.80
2019-03-23T23:58:19.859Z,6.37
